sensor_id;sensor_type;location;lat;lon;timestamp;pressure;altitude;pressure_sealevel;temperature;humidity
62124;BME280;48110;47.532;19.078;2023-04-04T00:01:07;100638.03;;;1.49;54.65
62124;BME280;48110;47.532;19.078;2023-04-04T00:04:10;100639.41;;;1.55;54.58
62124;BME280;48110;47.532;19.078;2023-04-04T00:07:12;100643.87;;;1.65;54.10
62124;BME280;48110;47.532;19.078;2023-04-04T00:10:16;100642.00;;;1.67;54.31
62124;BME280;48110;47.532;19.078;2023-04-04T00:13:18;100650.09;;;1.64;53.88
62124;BME280;48110;47.532;19.078;2023-04-04T00:16:21;100652.69;;;1.77;53.17
62124;BME280;48110;47.532;19.078;2023-04-04T00:19:24;100652.59;;;1.79;53.74
62124;BME280;48110;47.532;19.078;2023-04-04T00:22:27;100654.25;;;1.80;54.03
62124;BME280;48110;47.532;19.078;2023-04-04T00:25:29;100655.94;;;1.68;53.43
62124;BME280;48110;47.532;19.078;2023-04-04T00:28:32;100666.69;;;1.63;53.67
62124;BME280;48110;47.532;19.078;2023-04-04T00:31:34;100662.50;;;1.61;53.71
62124;BME280;48110;47.532;19.078;2023-04-04T00:34:37;100667.31;;;1.67;53.85
62124;BME280;48110;47.532;19.078;2023-04-04T00:37:39;100665.97;;;1.61;52.92
62124;BME280;48110;47.532;19.078;2023-04-04T00:40:49;100665.78;;;1.64;53.25
62124;BME280;48110;47.532;19.078;2023-04-04T00:43:52;100666.91;;;1.60;52.75
62124;BME280;48110;47.532;19.078;2023-04-04T00:46:56;100662.81;;;1.56;53.06
62124;BME280;48110;47.532;19.078;2023-04-04T00:49:58;100665.44;;;1.56;53.21
62124;BME280;48110;47.532;19.078;2023-04-04T00:53:03;100664.72;;;1.54;53.96
62124;BME280;48110;47.532;19.078;2023-04-04T00:56:07;100659.78;;;1.50;54.16
62124;BME280;48110;47.532;19.078;2023-04-04T00:59:10;100662.28;;;1.51;54.90
62124;BME280;48110;47.532;19.078;2023-04-04T01:02:13;100646.28;;;1.43;55.99
62124;BME280;48110;47.532;19.078;2023-04-04T01:05:15;100640.84;;;1.34;56.62
62124;BME280;48110;47.532;19.078;2023-04-04T01:08:19;100637.03;;;1.12;57.36
62124;BME280;48110;47.532;19.078;2023-04-04T01:11:23;100630.25;;;1.22;56.89
62124;BME280;48110;47.532;19.078;2023-04-04T01:14:25;100633.00;;;1.21;56.70
62124;BME280;48110;47.532;19.078;2023-04-04T01:17:28;100616.47;;;1.20;56.52
62124;BME280;48110;47.532;19.078;2023-04-04T01:20:31;100618.97;;;1.22;56.66
62124;BME280;48110;47.532;19.078;2023-04-04T01:23:41;100613.97;;;1.19;57.48
62124;BME280;48110;47.532;19.078;2023-04-04T01:26:46;100612.72;;;1.24;55.76
62124;BME280;48110;47.532;19.078;2023-04-04T01:29:49;100608.09;;;1.15;56.41
62124;BME280;48110;47.532;19.078;2023-04-04T01:32:53;100595.12;;;1.14;56.00
62124;BME280;48110;47.532;19.078;2023-04-04T01:36:12;100601.72;;;1.19;55.31
62124;BME280;48110;47.532;19.078;2023-04-04T01:39:24;100586.69;;;1.23;55.93
62124;BME280;48110;47.532;19.078;2023-04-04T01:42:29;100580.28;;;1.27;55.05
62124;BME280;48110;47.532;19.078;2023-04-04T01:45:32;100577.28;;;1.33;54.46
62124;BME280;48110;47.532;19.078;2023-04-04T01:48:36;100574.88;;;1.30;55.01
62124;BME280;48110;47.532;19.078;2023-04-04T01:51:39;100576.84;;;1.26;55.48
62124;BME280;48110;47.532;19.078;2023-04-04T01:54:42;100570.28;;;1.34;55.17
62124;BME280;48110;47.532;19.078;2023-04-04T01:57:45;100563.47;;;1.31;55.10
62124;BME280;48110;47.532;19.078;2023-04-04T02:00:48;100558.03;;;1.34;55.19
62124;BME280;48110;47.532;19.078;2023-04-04T02:03:51;100545.37;;;1.41;55.50
62124;BME280;48110;47.532;19.078;2023-04-04T02:06:54;100548.63;;;1.31;55.59
62124;BME280;48110;47.532;19.078;2023-04-04T02:09:58;100547.06;;;1.29;55.78
62124;BME280;48110;47.532;19.078;2023-04-04T02:13:01;100542.16;;;1.24;56.39
62124;BME280;48110;47.532;19.078;2023-04-04T02:16:03;100534.41;;;1.23;56.68
62124;BME280;48110;47.532;19.078;2023-04-04T02:19:06;100530.25;;;1.20;56.98
62124;BME280;48110;47.532;19.078;2023-04-04T02:22:10;100530.03;;;1.23;57.52
62124;BME280;48110;47.532;19.078;2023-04-04T02:25:12;100522.28;;;1.22;57.72
62124;BME280;48110;47.532;19.078;2023-04-04T02:28:17;100521.87;;;1.15;58.63
62124;BME280;48110;47.532;19.078;2023-04-04T02:31:22;100518.31;;;1.16;58.94
62124;BME280;48110;47.532;19.078;2023-04-04T02:34:25;100509.13;;;1.11;58.67
62124;BME280;48110;47.532;19.078;2023-04-04T02:37:27;100507.03;;;1.03;59.32
62124;BME280;48110;47.532;19.078;2023-04-04T02:40:30;100501.19;;;1.00;59.91
62124;BME280;48110;47.532;19.078;2023-04-04T02:43:33;100498.56;;;1.12;58.81
62124;BME280;48110;47.532;19.078;2023-04-04T02:46:39;100500.88;;;1.04;59.64
62124;BME280;48110;47.532;19.078;2023-04-04T02:49:42;100506.19;;;1.03;59.37
62124;BME280;48110;47.532;19.078;2023-04-04T02:52:45;100511.75;;;1.11;58.49
62124;BME280;48110;47.532;19.078;2023-04-04T02:55:48;100509.13;;;1.11;58.97
62124;BME280;48110;47.532;19.078;2023-04-04T02:58:51;100510.47;;;1.04;59.74
62124;BME280;48110;47.532;19.078;2023-04-04T03:01:53;100513.62;;;0.96;59.91
62124;BME280;48110;47.532;19.078;2023-04-04T03:04:56;100509.31;;;0.95;59.75
62124;BME280;48110;47.532;19.078;2023-04-04T03:07:59;100522.16;;;0.98;59.97
62124;BME280;48110;47.532;19.078;2023-04-04T03:11:02;100513.41;;;0.99;60.31
62124;BME280;48110;47.532;19.078;2023-04-04T03:14:04;100519.69;;;0.97;59.65
62124;BME280;48110;47.532;19.078;2023-04-04T03:17:08;100512.66;;;0.97;59.75
62124;BME280;48110;47.532;19.078;2023-04-04T03:20:12;100518.00;;;1.08;58.93
62124;BME280;48110;47.532;19.078;2023-04-04T03:23:15;100528.53;;;1.07;59.18
62124;BME280;48110;47.532;19.078;2023-04-04T03:26:17;100521.47;;;0.96;60.37
62124;BME280;48110;47.532;19.078;2023-04-04T03:29:21;100521.56;;;0.95;60.61
62124;BME280;48110;47.532;19.078;2023-04-04T03:32:24;100526.94;;;0.79;60.56
62124;BME280;48110;47.532;19.078;2023-04-04T03:35:27;100521.31;;;0.72;61.13
62124;BME280;48110;47.532;19.078;2023-04-04T03:38:29;100528.19;;;0.73;60.98
62124;BME280;48110;47.532;19.078;2023-04-04T03:41:32;100529.44;;;0.68;61.08
62124;BME280;48110;47.532;19.078;2023-04-04T03:44:34;100532.16;;;0.66;61.78
62124;BME280;48110;47.532;19.078;2023-04-04T03:47:39;100537.16;;;0.57;62.24
62124;BME280;48110;47.532;19.078;2023-04-04T03:50:41;100543.75;;;0.62;62.11
62124;BME280;48110;47.532;19.078;2023-04-04T03:53:44;100540.38;;;0.48;62.81
62124;BME280;48110;47.532;19.078;2023-04-04T03:56:46;100538.91;;;0.43;62.19
62124;BME280;48110;47.532;19.078;2023-04-04T03:59:49;100550.06;;;0.46;62.40
62124;BME280;48110;47.532;19.078;2023-04-04T04:02:52;100544.88;;;0.58;61.75
62124;BME280;48110;47.532;19.078;2023-04-04T04:05:55;100536.16;;;0.45;62.40
62124;BME280;48110;47.532;19.078;2023-04-04T04:08:58;100535.31;;;0.44;61.76
62124;BME280;48110;47.532;19.078;2023-04-04T04:12:02;100527.94;;;0.51;62.83
62124;BME280;48110;47.532;19.078;2023-04-04T04:15:04;100528.47;;;0.56;61.82
62124;BME280;48110;47.532;19.078;2023-04-04T04:18:08;100528.69;;;0.53;61.66
62124;BME280;48110;47.532;19.078;2023-04-04T04:21:10;100522.94;;;0.48;61.89
62124;BME280;48110;47.532;19.078;2023-04-04T04:24:15;100520.75;;;0.55;62.11
62124;BME280;48110;47.532;19.078;2023-04-04T04:27:17;100522.63;;;0.53;64.09
62124;BME280;48110;47.532;19.078;2023-04-04T04:30:20;100527.84;;;0.53;63.53
62124;BME280;48110;47.532;19.078;2023-04-04T04:33:29;100520.75;;;0.55;63.59
62124;BME280;48110;47.532;19.078;2023-04-04T04:36:32;100529.38;;;0.42;63.77
62124;BME280;48110;47.532;19.078;2023-04-04T04:39:34;100533.69;;;0.43;65.83
62124;BME280;48110;47.532;19.078;2023-04-04T04:42:42;100536.84;;;0.34;63.80
62124;BME280;48110;47.532;19.078;2023-04-04T04:45:45;100517.34;;;0.27;66.36
62124;BME280;48110;47.532;19.078;2023-04-04T04:48:47;100524.09;;;0.30;66.87
62124;BME280;48110;47.532;19.078;2023-04-04T04:51:51;100525.50;;;0.35;65.60
62124;BME280;48110;47.532;19.078;2023-04-04T04:54:55;100526.00;;;0.28;66.12
62124;BME280;48110;47.532;19.078;2023-04-04T04:57:57;100517.56;;;0.37;66.64
62124;BME280;48110;47.532;19.078;2023-04-04T05:01:00;100526.13;;;0.39;66.10
62124;BME280;48110;47.532;19.078;2023-04-04T05:04:06;100525.50;;;0.35;66.59
62124;BME280;48110;47.532;19.078;2023-04-04T05:07:10;100519.97;;;0.40;66.34
62124;BME280;48110;47.532;19.078;2023-04-04T05:10:14;100522.69;;;0.38;66.23
62124;BME280;48110;47.532;19.078;2023-04-04T05:13:17;100517.66;;;0.35;66.72
62124;BME280;48110;47.532;19.078;2023-04-04T05:16:20;100515.97;;;0.34;66.25
62124;BME280;48110;47.532;19.078;2023-04-04T05:19:23;100516.22;;;0.44;66.77
62124;BME280;48110;47.532;19.078;2023-04-04T05:22:27;100519.13;;;0.39;67.38
62124;BME280;48110;47.532;19.078;2023-04-04T05:25:30;100520.91;;;0.39;69.35
62124;BME280;48110;47.532;19.078;2023-04-04T05:28:32;100528.09;;;0.35;68.44
62124;BME280;48110;47.532;19.078;2023-04-04T05:31:36;100530.94;;;0.45;67.49
62124;BME280;48110;47.532;19.078;2023-04-04T05:34:39;100531.06;;;0.43;66.57
62124;BME280;48110;47.532;19.078;2023-04-04T05:37:43;100528.84;;;0.37;67.37
62124;BME280;48110;47.532;19.078;2023-04-04T05:40:46;100538.78;;;0.45;67.23
62124;BME280;48110;47.532;19.078;2023-04-04T05:43:50;100535.78;;;0.51;68.21
62124;BME280;48110;47.532;19.078;2023-04-04T05:46:54;100526.31;;;0.63;67.05
62124;BME280;48110;47.532;19.078;2023-04-04T05:49:58;100541.31;;;0.59;67.40
62124;BME280;48110;47.532;19.078;2023-04-04T05:53:03;100537.16;;;0.57;66.97
62124;BME280;48110;47.532;19.078;2023-04-04T05:56:06;100536.63;;;0.64;66.11
62124;BME280;48110;47.532;19.078;2023-04-04T05:59:08;100547.44;;;0.72;66.92
62124;BME280;48110;47.532;19.078;2023-04-04T06:02:13;100556.03;;;0.87;64.96
62124;BME280;48110;47.532;19.078;2023-04-04T06:05:16;100554.25;;;1.00;63.09
62124;BME280;48110;47.532;19.078;2023-04-04T06:08:19;100553.66;;;1.09;63.36
62124;BME280;48110;47.532;19.078;2023-04-04T06:11:21;100559.37;;;1.27;62.37
62124;BME280;48110;47.532;19.078;2023-04-04T06:14:24;100554.28;;;1.25;63.63
62124;BME280;48110;47.532;19.078;2023-04-04T06:17:27;100547.28;;;1.39;62.83
62124;BME280;48110;47.532;19.078;2023-04-04T06:20:31;100559.69;;;1.60;60.60
62124;BME280;48110;47.532;19.078;2023-04-04T06:23:34;100549.00;;;1.76;58.93
62124;BME280;48110;47.532;19.078;2023-04-04T06:26:39;100555.22;;;1.99;55.65
62124;BME280;48110;47.532;19.078;2023-04-04T06:29:42;100559.19;;;2.28;55.09
62124;BME280;48110;47.532;19.078;2023-04-04T06:32:45;100560.19;;;2.51;53.81
62124;BME280;48110;47.532;19.078;2023-04-04T06:35:50;100551.34;;;2.76;54.16
62124;BME280;48110;47.532;19.078;2023-04-04T06:38:53;100533.19;;;3.08;50.80
62124;BME280;48110;47.532;19.078;2023-04-04T06:41:56;100521.31;;;3.26;50.06
62124;BME280;48110;47.532;19.078;2023-04-04T06:44:59;100514.63;;;3.22;50.18
62124;BME280;48110;47.532;19.078;2023-04-04T06:48:02;100533.38;;;3.50;48.98
62124;BME280;48110;47.532;19.078;2023-04-04T06:51:07;100527.88;;;3.42;48.53
62124;BME280;48110;47.532;19.078;2023-04-04T06:54:11;100518.94;;;3.34;49.46
62124;BME280;48110;47.532;19.078;2023-04-04T06:57:14;100515.47;;;3.56;49.01
62124;BME280;48110;47.532;19.078;2023-04-04T07:00:16;100498.78;;;3.12;49.73
62124;BME280;48110;47.532;19.078;2023-04-04T07:03:19;100508.94;;;3.28;49.58
62124;BME280;48110;47.532;19.078;2023-04-04T07:06:22;100511.56;;;3.28;49.85
62124;BME280;48110;47.532;19.078;2023-04-04T07:09:27;100516.94;;;3.48;49.06
62124;BME280;48110;47.532;19.078;2023-04-04T07:12:31;100513.94;;;3.64;49.15
62124;BME280;48110;47.532;19.078;2023-04-04T07:15:34;100516.31;;;3.67;49.11
62124;BME280;48110;47.532;19.078;2023-04-04T07:18:37;100520.72;;;3.78;48.73
62124;BME280;48110;47.532;19.078;2023-04-04T07:21:39;100521.19;;;3.49;49.00
62124;BME280;48110;47.532;19.078;2023-04-04T07:24:41;100528.34;;;3.36;49.03
62124;BME280;48110;47.532;19.078;2023-04-04T07:27:44;100536.47;;;3.44;49.14
62124;BME280;48110;47.532;19.078;2023-04-04T07:30:47;100521.19;;;3.49;48.87
62124;BME280;48110;47.532;19.078;2023-04-04T07:33:50;100530.03;;;3.60;48.33
62124;BME280;48110;47.532;19.078;2023-04-04T07:36:54;100530.12;;;3.69;49.20
62124;BME280;48110;47.532;19.078;2023-04-04T07:39:57;100539.44;;;3.96;48.25
62124;BME280;48110;47.532;19.078;2023-04-04T07:42:59;100531.94;;;3.91;47.40
62124;BME280;48110;47.532;19.078;2023-04-04T07:46:02;100535.22;;;4.47;47.09
62124;BME280;48110;47.532;19.078;2023-04-04T07:49:04;100534.16;;;5.02;44.99
62124;BME280;48110;47.532;19.078;2023-04-04T07:52:09;100527.81;;;6.05;43.70
62124;BME280;48110;47.532;19.078;2023-04-04T07:55:11;100539.34;;;7.29;40.73
62124;BME280;48110;47.532;19.078;2023-04-04T07:58:17;100537.31;;;6.37;41.69
62124;BME280;48110;47.532;19.078;2023-04-04T08:01:19;100532.06;;;5.27;44.04
62124;BME280;48110;47.532;19.078;2023-04-04T08:04:22;100525.28;;;5.54;44.12
62124;BME280;48110;47.532;19.078;2023-04-04T08:07:25;100531.22;;;6.46;42.35
62124;BME280;48110;47.532;19.078;2023-04-04T08:10:31;100536.56;;;5.15;43.79
62124;BME280;48110;47.532;19.078;2023-04-04T08:13:33;100523.72;;;5.52;43.20
62124;BME280;48110;47.532;19.078;2023-04-04T08:16:36;100525.25;;;4.62;45.06
62124;BME280;48110;47.532;19.078;2023-04-04T08:19:39;100524.72;;;4.79;45.06
62124;BME280;48110;47.532;19.078;2023-04-04T08:22:42;100531.28;;;5.36;43.79
62124;BME280;48110;47.532;19.078;2023-04-04T08:25:45;100528.03;;;5.83;44.01
62124;BME280;48110;47.532;19.078;2023-04-04T08:28:47;100546.63;;;6.50;41.78
62124;BME280;48110;47.532;19.078;2023-04-04T08:31:50;100553.97;;;6.28;41.00
62124;BME280;48110;47.532;19.078;2023-04-04T08:34:55;100541.84;;;6.16;42.16
62124;BME280;48110;47.532;19.078;2023-04-04T08:37:57;100549.47;;;5.99;40.96
62124;BME280;48110;47.532;19.078;2023-04-04T08:41:00;100537.25;;;5.98;41.28
62124;BME280;48110;47.532;19.078;2023-04-04T08:44:03;100544.50;;;6.25;41.43
62124;BME280;48110;47.532;19.078;2023-04-04T08:47:06;100547.75;;;6.38;41.01
62124;BME280;48110;47.532;19.078;2023-04-04T08:50:10;100523.69;;;6.03;41.45
62124;BME280;48110;47.532;19.078;2023-04-04T08:53:13;100515.81;;;6.89;40.95
62124;BME280;48110;47.532;19.078;2023-04-04T08:56:17;100527.69;;;7.96;38.42
62124;BME280;48110;47.532;19.078;2023-04-04T08:59:20;100522.72;;;7.10;39.51
62124;BME280;48110;47.532;19.078;2023-04-04T09:02:25;100505.28;;;6.80;40.20
62124;BME280;48110;47.532;19.078;2023-04-04T09:05:29;100513.50;;;6.48;40.26
62124;BME280;48110;47.532;19.078;2023-04-04T09:08:32;100511.09;;;6.35;41.07
62124;BME280;48110;47.532;19.078;2023-04-04T09:11:35;100515.28;;;6.57;40.73
62124;BME280;48110;47.532;19.078;2023-04-04T09:14:39;100496.06;;;5.57;42.25
62124;BME280;48110;47.532;19.078;2023-04-04T09:17:43;100508.19;;;6.09;41.94
62124;BME280;48110;47.532;19.078;2023-04-04T09:20:46;100518.03;;;6.27;41.77
62124;BME280;48110;47.532;19.078;2023-04-04T09:23:58;100495.47;;;5.84;41.66
62124;BME280;48110;47.532;19.078;2023-04-04T09:27:01;100515.97;;;6.59;40.84
62124;BME280;48110;47.532;19.078;2023-04-04T09:30:04;100503.44;;;6.03;41.31
62124;BME280;48110;47.532;19.078;2023-04-04T09:33:08;100516.13;;;6.58;40.32
62124;BME280;48110;47.532;19.078;2023-04-04T09:36:11;100510.81;;;6.09;41.42
62124;BME280;48110;47.532;19.078;2023-04-04T09:39:14;100510.53;;;6.12;41.23
62124;BME280;48110;47.532;19.078;2023-04-04T09:42:18;100500.97;;;6.40;41.10
62124;BME280;48110;47.532;19.078;2023-04-04T09:45:23;100491.97;;;6.33;41.37
62124;BME280;48110;47.532;19.078;2023-04-04T09:48:35;100494.34;;;6.55;40.42
62124;BME280;48110;47.532;19.078;2023-04-04T09:51:43;100496.00;;;6.66;40.17
62124;BME280;48110;47.532;19.078;2023-04-04T09:54:56;100491.13;;;6.23;40.81
62124;BME280;48110;47.532;19.078;2023-04-04T09:58:02;100486.12;;;6.10;40.58
62124;BME280;48110;47.532;19.078;2023-04-04T10:01:12;100480.47;;;6.73;40.81
62124;BME280;48110;47.532;19.078;2023-04-04T10:04:16;100476.47;;;7.52;39.85
62124;BME280;48110;47.532;19.078;2023-04-04T10:07:19;100496.12;;;6.55;40.38
62124;BME280;48110;47.532;19.078;2023-04-04T10:10:28;100492.75;;;7.01;40.35
62124;BME280;48110;47.532;19.078;2023-04-04T10:13:33;100498.28;;;7.54;38.71
62124;BME280;48110;47.532;19.078;2023-04-04T10:16:37;100486.50;;;7.49;39.23
62124;BME280;48110;47.532;19.078;2023-04-04T10:19:46;100491.31;;;7.63;40.77
62124;BME280;48110;47.532;19.078;2023-04-04T10:22:49;100492.47;;;7.78;38.91
62124;BME280;48110;47.532;19.078;2023-04-04T10:25:53;100481.75;;;8.24;37.33
62124;BME280;48110;47.532;19.078;2023-04-04T10:28:55;100475.81;;;7.77;37.54
62124;BME280;48110;47.532;19.078;2023-04-04T10:32:01;100479.66;;;7.19;38.26
62124;BME280;48110;47.532;19.078;2023-04-04T10:35:06;100465.97;;;7.42;38.17
62124;BME280;48110;47.532;19.078;2023-04-04T10:38:12;100474.78;;;7.24;38.06
62124;BME280;48110;47.532;19.078;2023-04-04T10:41:15;100461.22;;;7.73;38.00
62124;BME280;48110;47.532;19.078;2023-04-04T10:44:28;100463.44;;;7.04;39.64
62124;BME280;48110;47.532;19.078;2023-04-04T10:47:33;100452.75;;;8.15;37.94
62124;BME280;48110;47.532;19.078;2023-04-04T10:50:36;100457.16;;;8.59;37.11
62124;BME280;48110;47.532;19.078;2023-04-04T10:53:41;100458.78;;;8.25;36.69
62124;BME280;48110;47.532;19.078;2023-04-04T10:56:43;100464.25;;;8.59;36.71
62124;BME280;48110;47.532;19.078;2023-04-04T11:00:03;100465.00;;;8.16;36.88
62124;BME280;48110;47.532;19.078;2023-04-04T11:03:14;100460.56;;;8.95;35.96
62124;BME280;48110;47.532;19.078;2023-04-04T11:06:17;100453.75;;;9.19;34.90
62124;BME280;48110;47.532;19.078;2023-04-04T11:12:42;100455.09;;;11.67;31.96
62124;BME280;48110;47.532;19.078;2023-04-04T11:15:53;100452.56;;;12.95;29.64
62124;BME280;48110;47.532;19.078;2023-04-04T11:18:58;100430.41;;;10.06;32.75
62124;BME280;48110;47.532;19.078;2023-04-04T11:22:01;100433.22;;;9.96;32.88
62124;BME280;48110;47.532;19.078;2023-04-04T11:31:38;100435.78;;;10.63;31.49
62124;BME280;48110;47.532;19.078;2023-04-04T11:34:41;100421.72;;;11.64;30.92
62124;BME280;48110;47.532;19.078;2023-04-04T11:38:30;100421.72;;;12.26;30.51
62124;BME280;48110;47.532;19.078;2023-04-04T11:41:08;100427.37;;;13.35;28.55
62124;BME280;48110;47.532;19.078;2023-04-04T11:44:11;100416.41;;;11.72;31.77
62124;BME280;48110;47.532;19.078;2023-04-04T11:47:14;100416.22;;;12.05;30.18
62124;BME280;48110;47.532;19.078;2023-04-04T11:50:25;100416.09;;;11.59;30.67
62124;BME280;48110;47.532;19.078;2023-04-04T11:53:27;100418.34;;;12.09;29.45
62124;BME280;48110;47.532;19.078;2023-04-04T11:56:32;100405.47;;;12.44;31.04
62124;BME280;48110;47.532;19.078;2023-04-04T11:59:40;100409.78;;;13.91;28.33
62124;BME280;48110;47.532;19.078;2023-04-04T12:02:43;100403.56;;;12.52;29.29
62124;BME280;48110;47.532;19.078;2023-04-04T12:05:47;100400.31;;;12.94;29.33
62124;BME280;48110;47.532;19.078;2023-04-04T12:08:50;100391.38;;;12.58;29.44
62124;BME280;48110;47.532;19.078;2023-04-04T12:11:53;100396.87;;;12.71;29.64
62124;BME280;48110;47.532;19.078;2023-04-04T12:14:55;100401.78;;;15.04;26.81
62124;BME280;48110;47.532;19.078;2023-04-04T12:18:19;100382.81;;;13.15;28.86
62124;BME280;48110;47.532;19.078;2023-04-04T12:21:22;100374.94;;;11.86;30.54
62124;BME280;48110;47.532;19.078;2023-04-04T12:24:26;100382.81;;;13.65;28.03
62124;BME280;48110;47.532;19.078;2023-04-04T12:27:28;100368.53;;;12.78;28.41
62124;BME280;48110;47.532;19.078;2023-04-04T12:30:31;100380.16;;;11.80;30.64
62124;BME280;48110;47.532;19.078;2023-04-04T12:33:34;100365.81;;;11.89;30.31
62124;BME280;48110;47.532;19.078;2023-04-04T12:36:38;100368.75;;;13.71;28.13
62124;BME280;48110;47.532;19.078;2023-04-04T12:39:45;100361.50;;;13.65;28.07
62124;BME280;48110;47.532;19.078;2023-04-04T12:42:49;100360.78;;;13.21;28.92
62124;BME280;48110;47.532;19.078;2023-04-04T12:45:52;100363.91;;;15.01;26.39
62124;BME280;48110;47.532;19.078;2023-04-04T12:48:55;100365.66;;;14.10;28.17
62124;BME280;48110;47.532;19.078;2023-04-04T12:51:58;100345.19;;;11.91;29.09
62124;BME280;48110;47.532;19.078;2023-04-04T12:55:06;100360.22;;;11.45;29.84
62124;BME280;48110;47.532;19.078;2023-04-04T12:58:11;100348.06;;;13.23;28.45
62124;BME280;48110;47.532;19.078;2023-04-04T13:01:14;100346.47;;;14.00;27.50
62124;BME280;48110;47.532;19.078;2023-04-04T13:04:18;100352.94;;;13.04;27.80
62124;BME280;48110;47.532;19.078;2023-04-04T13:07:25;100341.59;;;13.46;27.35
62124;BME280;48110;47.532;19.078;2023-04-04T13:10:29;100336.19;;;11.92;30.26
62124;BME280;48110;47.532;19.078;2023-04-04T13:13:36;100348.84;;;10.81;32.07
62124;BME280;48110;47.532;19.078;2023-04-04T13:16:39;100340.84;;;10.97;31.80
62124;BME280;48110;47.532;19.078;2023-04-04T13:19:42;100340.62;;;10.60;32.18
62124;BME280;48110;47.532;19.078;2023-04-04T13:22:44;100340.62;;;10.27;32.61
62124;BME280;48110;47.532;19.078;2023-04-04T13:25:47;100340.91;;;10.73;31.78
62124;BME280;48110;47.532;19.078;2023-04-04T13:28:49;100333.91;;;10.88;31.26
62124;BME280;48110;47.532;19.078;2023-04-04T13:31:52;100336.75;;;10.78;31.78
62124;BME280;48110;47.532;19.078;2023-04-04T13:34:54;100331.31;;;12.41;30.15
62124;BME280;48110;47.532;19.078;2023-04-04T13:37:57;100334.09;;;12.62;29.38
62124;BME280;48110;47.532;19.078;2023-04-04T13:41:01;100329.84;;;10.04;31.54
62124;BME280;48110;47.532;19.078;2023-04-04T13:44:03;100324.06;;;10.33;31.11
62124;BME280;48110;47.532;19.078;2023-04-04T13:47:06;100326.59;;;11.60;30.64
62124;BME280;48110;47.532;19.078;2023-04-04T13:50:09;100323.41;;;11.03;30.50
62124;BME280;48110;47.532;19.078;2023-04-04T13:53:12;100324.31;;;12.40;30.07
62124;BME280;48110;47.532;19.078;2023-04-04T13:56:14;100315.75;;;11.92;29.17
62124;BME280;48110;47.532;19.078;2023-04-04T13:59:20;100328.69;;;10.48;31.62
62124;BME280;48110;47.532;19.078;2023-04-04T14:02:23;100321.22;;;10.51;31.71
62124;BME280;48110;47.532;19.078;2023-04-04T14:05:26;100330.12;;;10.74;31.27
62124;BME280;48110;47.532;19.078;2023-04-04T14:08:28;100324.03;;;9.85;32.24
62124;BME280;48110;47.532;19.078;2023-04-04T14:11:32;100320.41;;;10.26;31.99
62124;BME280;48110;47.532;19.078;2023-04-04T14:14:35;100323.12;;;10.81;31.36
62124;BME280;48110;47.532;19.078;2023-04-04T14:17:39;100324.38;;;12.17;30.49
62124;BME280;48110;47.532;19.078;2023-04-04T14:20:42;100320.47;;;12.28;29.79
62124;BME280;48110;47.532;19.078;2023-04-04T14:23:44;100311.87;;;12.03;30.11
62124;BME280;48110;47.532;19.078;2023-04-04T14:26:47;100337.38;;;12.12;29.71
62124;BME280;48110;47.532;19.078;2023-04-04T14:29:50;100328.50;;;10.57;30.76
62124;BME280;48110;47.532;19.078;2023-04-04T14:32:52;100323.72;;;10.04;31.23
62124;BME280;48110;47.532;19.078;2023-04-04T14:35:55;100327.09;;;10.85;31.81
62124;BME280;48110;47.532;19.078;2023-04-04T14:38:58;100331.00;;;10.59;32.30
62124;BME280;48110;47.532;19.078;2023-04-04T14:42:00;100324.44;;;10.85;32.53
62124;BME280;48110;47.532;19.078;2023-04-04T14:45:03;100328.19;;;10.52;32.45
62124;BME280;48110;47.532;19.078;2023-04-04T14:48:08;100333.16;;;9.90;32.87
62124;BME280;48110;47.532;19.078;2023-04-04T14:51:12;100333.47;;;9.79;32.83
62124;BME280;48110;47.532;19.078;2023-04-04T14:54:15;100336.81;;;9.23;33.19
62124;BME280;48110;47.532;19.078;2023-04-04T14:57:17;100324.75;;;9.29;34.00
62124;BME280;48110;47.532;19.078;2023-04-04T15:00:20;100333.22;;;9.40;33.25
62124;BME280;48110;47.532;19.078;2023-04-04T15:03:25;100331.81;;;9.12;33.67
62124;BME280;48110;47.532;19.078;2023-04-04T15:06:28;100334.69;;;9.27;34.12
62124;BME280;48110;47.532;19.078;2023-04-04T15:09:37;100335.37;;;9.45;34.55
62124;BME280;48110;47.532;19.078;2023-04-04T15:12:40;100333.09;;;9.00;34.90
62124;BME280;48110;47.532;19.078;2023-04-04T15:15:42;100332.84;;;8.85;35.27
62124;BME280;48110;47.532;19.078;2023-04-04T15:18:45;100331.84;;;8.86;35.20
62124;BME280;48110;47.532;19.078;2023-04-04T15:21:48;100334.91;;;8.99;35.21
62124;BME280;48110;47.532;19.078;2023-04-04T15:24:50;100340.81;;;8.93;35.11
62124;BME280;48110;47.532;19.078;2023-04-04T15:27:53;100342.34;;;8.44;35.37
62124;BME280;48110;47.532;19.078;2023-04-04T15:30:56;100339.28;;;8.57;35.16
62124;BME280;48110;47.532;19.078;2023-04-04T15:34:01;100331.09;;;8.68;35.55
62124;BME280;48110;47.532;19.078;2023-04-04T15:37:04;100345.34;;;8.49;35.96
62124;BME280;48110;47.532;19.078;2023-04-04T15:40:07;100350.38;;;8.17;36.34
62124;BME280;48110;47.532;19.078;2023-04-04T15:43:12;100345.94;;;8.17;36.30
62124;BME280;48110;47.532;19.078;2023-04-04T15:46:15;100353.03;;;8.35;36.52
62124;BME280;48110;47.532;19.078;2023-04-04T15:49:17;100347.12;;;8.05;36.22
62124;BME280;48110;47.532;19.078;2023-04-04T15:52:20;100344.19;;;7.91;37.05
62124;BME280;48110;47.532;19.078;2023-04-04T15:55:22;100359.59;;;7.77;36.75
62124;BME280;48110;47.532;19.078;2023-04-04T15:58:25;100360.44;;;7.78;37.39
62124;BME280;48110;47.532;19.078;2023-04-04T16:01:27;100366.75;;;7.67;36.87
62124;BME280;48110;47.532;19.078;2023-04-04T16:04:30;100366.50;;;7.61;37.14
62124;BME280;48110;47.532;19.078;2023-04-04T16:07:33;100366.75;;;7.50;37.63